Time;durP1;ratioP1;P1;durP2;ratioP2;P2;SDS_P1;SDS_P2;PMS_P1;PMS_P2;Temp;Humidity;BMP_temperature;BMP_pressure;BME280_temperature;BME280_humidity;BME280_pressure;Samples;Min_cycle;Max_cycle;Signal;HPM_P1;HPM_P2
2022/03/07 00:00:09;;;;;;;9.45;6.32;;;2.70;77.50;;;;;;4953764;28;20110;-76
2022/03/07 00:02:35;;;;;;;8.18;5.43;;;2.60;77.50;;;;;;4953958;29;20024;-77
2022/03/07 00:05:00;;;;;;;9.70;5.55;;;2.60;77.80;;;;;;4954154;29;20134;-76
2022/03/07 00:07:26;;;;;;;9.05;5.63;;;4.40;78.50;;;;;;4937127;29;20040;-77
2022/03/07 00:09:52;;;;;;;9.95;5.57;;;2.60;77.50;;;;;;4953486;29;20473;-76
2022/03/07 00:12:17;;;;;;;8.77;5.57;;;2.50;77.40;;;;;;4936640;28;20038;-76
2022/03/07 00:14:43;;;;;;;7.65;4.65;;;2.60;77.20;;;;;;4954017;28;20362;-77
2022/03/07 00:17:08;;;;;;;7.60;5.40;;;2.50;77.40;;;;;;4936811;28;20534;-77
2022/03/07 00:19:34;;;;;;;7.78;5.20;;;2.40;77.80;;;;;;4953402;28;20058;-76
2022/03/07 00:22:00;;;;;;;7.28;5.20;;;2.30;77.90;;;;;;4953859;28;20031;-76
2022/03/07 00:24:25;;;;;;;7.97;5.72;;;2.50;77.90;;;;;;4953942;29;20019;-76
2022/03/07 00:26:51;;;;;;;7.57;5.13;;;2.40;77.90;;;;;;4953540;29;20032;-77
2022/03/07 00:29:17;;;;;;;11.10;5.20;;;2.40;78.10;;;;;;4953183;29;20047;-76
2022/03/07 00:31:45;;;;;;;8.18;5.05;;;2.40;78.50;;;;;;4953608;29;20038;-76
2022/03/07 00:34:10;;;;;;;9.23;6.18;;;2.10;78.30;;;;;;4953708;29;20027;-76
2022/03/07 00:36:36;;;;;;;7.80;5.03;;;2.20;78.60;;;;;;4936435;29;20042;-76
2022/03/07 00:39:02;;;;;;;7.30;4.93;;;2.30;78.90;;;;;;4933975;29;20036;-76
2022/03/07 00:41:28;;;;;;;10.15;5.60;;;2.30;79.20;;;;;;4948019;29;20103;-76
2022/03/07 00:43:53;;;;;;;12.80;5.47;;;2.20;79.30;;;;;;4953722;28;20118;-76
2022/03/07 00:46:19;;;;;;;8.63;5.57;;;2.20;80.00;;;;;;4953455;29;20043;-76
2022/03/07 00:48:45;;;;;;;11.18;5.45;;;2.20;80.30;;;;;;4953159;28;20793;-76
2022/03/07 00:51:10;;;;;;;6.75;5.28;;;4.10;81.40;;;;;;4953426;28;20042;-76
2022/03/07 00:53:36;;;;;;;7.78;5.22;;;2.10;80.50;;;;;;4953547;29;20681;-76
2022/03/07 00:56:02;;;;;;;8.70;5.18;;;2.20;80.80;;;;;;4953154;29;20213;-77
2022/03/07 00:58:27;;;;;;;8.23;4.78;;;2.10;81.10;;;;;;4952932;29;20116;-76
2022/03/07 01:00:53;;;;;;;8.20;5.10;;;3.80;82.60;;;;;;4936267;29;20119;-76
2022/03/07 01:03:19;;;;;;;9.25;5.25;;;2.00;82.10;;;;;;4953472;29;20118;-76
2022/03/07 01:05:45;;;;;;;9.30;6.07;;;1.90;82.40;;;;;;4953369;28;20023;-77
2022/03/07 01:08:11;;;;;;;11.85;6.22;;;1.80;83.10;;;;;;4952663;28;20097;-77
2022/03/07 01:10:37;;;;;;;8.30;5.70;;;1.80;83.70;;;;;;4952345;29;20043;-76
2022/03/07 01:13:04;;;;;;;9.18;5.35;;;1.80;85.10;;;;;;4953508;28;20111;-77
2022/03/07 01:15:30;;;;;;;8.88;5.43;;;1.70;85.30;;;;;;4953295;29;20031;-77
2022/03/07 01:17:59;;;;;;;8.35;4.85;;;1.80;86.00;;;;;;4952898;28;20040;-75
2022/03/07 01:20:25;;;;;;;9.65;5.30;;;1.60;87.10;;;;;;4952363;29;20106;-74
2022/03/07 01:22:51;;;;;;;8.63;5.45;;;1.60;88.30;;;;;;4952923;28;20403;-77
2022/03/07 01:25:17;;;;;;;7.35;4.90;;;1.50;89.30;;;;;;4935730;29;20031;-77
2022/03/07 01:27:42;;;;;;;7.90;5.25;;;1.40;90.00;;;;;;4952913;29;20032;-77
2022/03/07 01:30:08;;;;;;;7.22;5.60;;;1.30;90.60;;;;;;4952488;29;20027;-77
2022/03/07 01:32:35;;;;;;;7.53;5.10;;;1.30;90.70;;;;;;4952537;29;20507;-77
2022/03/07 01:35:00;;;;;;;7.25;5.00;;;1.20;91.00;;;;;;4952844;29;20038;-77
2022/03/07 01:37:26;;;;;;;8.82;5.10;;;1.10;91.90;;;;;;4952924;28;20035;-77
2022/03/07 01:39:52;;;;;;;7.13;5.30;;;1.10;92.20;;;;;;4952215;28;20391;-77
2022/03/07 01:42:17;;;;;;;7.35;5.60;;;0.70;92.80;;;;;;4952427;28;20039;-77
2022/03/07 01:44:43;;;;;;;8.85;5.30;;;0.90;93.50;;;;;;4952755;28;20184;-77
2022/03/07 01:47:09;;;;;;;7.35;5.20;;;0.80;94.00;;;;;;4953031;29;20039;-77
2022/03/07 01:49:34;;;;;;;7.70;5.38;;;0.90;94.40;;;;;;4952162;28;20027;-77
2022/03/07 01:52:00;;;;;;;8.55;5.32;;;0.70;94.80;;;;;;4952659;29;20431;-77
2022/03/07 01:54:26;;;;;;;8.35;5.65;;;0.60;95.80;;;;;;4952086;29;20031;-77
2022/03/07 01:56:53;;;;;;;9.82;5.90;;;0.60;97.30;;;;;;4952466;28;20081;-77
2022/03/07 01:59:23;;;;;;;8.38;5.38;;;0.40;97.80;;;;;;4952012;28;20634;-77
2022/03/07 02:01:49;;;;;;;7.93;5.45;;;0.50;98.10;;;;;;4952291;28;20035;-77
2022/03/07 02:04:15;;;;;;;6.28;4.78;;;0.10;98.20;;;;;;4952476;29;20077;-77
2022/03/07 02:06:41;;;;;;;8.20;4.93;;;0.30;97.70;;;;;;4952394;29;20023;-77
2022/03/07 02:09:08;;;;;;;7.55;5.20;;;0.30;98.10;;;;;;4951631;29;20114;-77
2022/03/07 02:11:34;;;;;;;7.90;5.00;;;0.20;98.30;;;;;;4935105;29;20036;-77
2022/03/07 02:14:30;;;;;;;7.88;5.10;;;0.10;98.60;;;;;;4952517;29;20024;-77
2022/03/07 02:16:56;;;;;;;5.72;4.40;;;0.10;98.40;;;;;;4960318;28;20118;-77
2022/03/07 02:19:22;;;;;;;9.45;5.35;;;0.10;98.20;;;;;;4951405;29;20035;-77
2022/03/07 02:21:49;;;;;;;6.78;4.45;;;0.10;97.80;;;;;;4952098;28;20023;-77
2022/03/07 02:24:18;;;;;;;9.43;5.43;;;0.10;97.80;;;;;;4952462;29;20032;-76
2022/03/07 02:26:54;;;;;;;8.55;4.72;;;0.10;98.00;;;;;;4952184;29;20035;-77
2022/03/07 02:29:20;;;;;;;6.90;4.93;;;0.00;98.20;;;;;;4951772;29;20028;-77
2022/03/07 02:31:45;;;;;;;11.55;5.47;;;-0.20;98.20;;;;;;4952409;29;20547;-77
2022/03/07 02:34:11;;;;;;;7.80;5.68;;;1.00;98.50;;;;;;4958096;28;20054;-77
2022/03/07 02:36:36;;;;;;;9.73;4.93;;;-0.10;98.20;;;;;;4954808;28;20043;-77
2022/03/07 02:39:02;;;;;;;8.48;5.28;;;0.00;98.30;;;;;;4951677;28;20042;-77
2022/03/07 02:41:28;;;;;;;7.10;5.10;;;-0.20;98.30;;;;;;4951524;29;20026;-75
2022/03/07 02:43:53;;;;;;;7.57;5.15;;;-0.20;98.30;;;;;;4951653;28;20036;-77
2022/03/07 02:46:19;;;;;;;7.00;5.13;;;-0.10;97.90;;;;;;4951799;28;20031;-77
2022/03/07 02:48:44;;;;;;;7.78;5.38;;;-0.30;98.30;;;;;;4951351;28;20534;-77
2022/03/07 02:51:10;;;;;;;8.15;5.43;;;-0.30;97.90;;;;;;4951688;28;20035;-77
2022/03/07 02:53:35;;;;;;;7.97;5.38;;;-0.10;97.80;;;;;;4951524;29;20111;-77
2022/03/07 02:56:01;;;;;;;8.13;5.38;;;-0.20;97.60;;;;;;4951482;28;20038;-77
2022/03/07 02:58:27;;;;;;;7.45;5.25;;;-0.20;97.90;;;;;;4950959;28;20043;-77
2022/03/07 03:00:52;;;;;;;7.30;5.35;;;-0.30;98.00;;;;;;4951484;28;20377;-77
2022/03/07 03:03:18;;;;;;;10.05;5.55;;;-0.40;98.70;;;;;;4951539;29;20114;-77
2022/03/07 03:05:43;;;;;;;7.20;5.05;;;-0.40;98.70;;;;;;4951474;29;20035;-77
2022/03/07 03:08:09;;;;;;;10.70;5.95;;;-0.50;98.50;;;;;;4951602;29;20035;-77
2022/03/07 03:10:35;;;;;;;7.03;5.13;;;-0.50;98.50;;;;;;4950812;29;20031;-77
2022/03/07 03:13:00;;;;;;;9.70;6.00;;;-0.50;98.60;;;;;;4948830;28;20392;-77
2022/03/07 03:15:26;;;;;;;7.75;5.30;;;-0.50;99.10;;;;;;4950332;28;20036;-77
2022/03/07 03:17:52;;;;;;;9.55;5.95;;;-0.10;99.30;;;;;;4951444;29;20121;-77
2022/03/07 03:20:17;;;;;;;8.93;5.65;;;1.00;99.70;;;;;;4950911;29;20427;-77
2022/03/07 03:22:44;;;;;;;10.52;5.80;;;-0.60;99.90;;;;;;4950009;29;20027;-77
2022/03/07 03:25:12;;;;;;;10.27;6.00;;;-0.50;99.90;;;;;;4951454;28;20039;-77
2022/03/07 03:27:38;;;;;;;8.70;5.65;;;1.20;99.90;;;;;;4951255;28;20464;-77
2022/03/07 03:30:08;;;;;;;9.52;6.20;;;-0.40;99.90;;;;;;4950181;29;20038;-77
2022/03/07 03:32:34;;;;;;;10.13;6.45;;;-0.40;99.90;;;;;;4951022;28;20066;-77
2022/03/07 03:35:00;;;;;;;14.45;7.20;;;-0.50;99.90;;;;;;4951162;29;20027;-77
2022/03/07 03:37:25;;;;;;;12.93;7.32;;;-0.50;99.90;;;;;;4951107;29;20027;-77
2022/03/07 03:39:51;;;;;;;17.00;8.20;;;-0.50;99.90;;;;;;4950297;29;20023;-77
2022/03/07 03:42:17;;;;;;;17.67;8.20;;;0.30;99.90;;;;;;4950865;28;20039;-74
2022/03/07 03:44:42;;;;;;;14.70;8.98;;;-0.80;99.90;;;;;;4949628;28;20035;-76
2022/03/07 03:47:08;;;;;;;16.80;8.18;;;-0.80;99.90;;;;;;4950905;29;20407;-77
2022/03/07 03:49:34;;;;;;;10.00;5.85;;;-0.80;99.90;;;;;;4950332;29;20061;-77
2022/03/07 03:51:59;;;;;;;12.90;7.35;;;-0.80;99.90;;;;;;4950867;28;20027;-77
2022/03/07 03:54:25;;;;;;;10.00;6.65;;;-0.90;99.90;;;;;;4950862;29;20038;-77
2022/03/07 03:56:51;;;;;;;9.43;6.22;;;-0.90;99.90;;;;;;4950675;29;20038;-77
2022/03/07 03:59:16;;;;;;;9.95;6.15;;;-1.00;99.90;;;;;;4950282;29;20178;-77
2022/03/07 04:01:44;;;;;;;9.15;5.43;;;-1.10;99.90;;;;;;4933306;29;20028;-77
2022/03/07 04:04:11;;;;;;;8.57;5.32;;;-1.30;99.90;;;;;;4950812;29;20023;-77
2022/03/07 04:06:36;;;;;;;9.40;6.22;;;-1.30;99.90;;;;;;4950867;29;20031;-77
2022/03/07 04:09:02;;;;;;;7.80;5.70;;;-1.30;99.90;;;;;;4950187;29;20034;-77
2022/03/07 04:11:28;;;;;;;8.20;5.50;;;-1.40;99.90;;;;;;4950242;29;20107;-77
2022/03/07 04:13:53;;;;;;;10.60;6.32;;;-1.40;99.90;;;;;;4950780;28;20111;-77
2022/03/07 04:16:19;;;;;;;9.30;5.50;;;-1.30;99.90;;;;;;4950656;28;20649;-77
2022/03/07 04:18:45;;;;;;;6.20;4.60;;;-1.40;99.90;;;;;;4950320;29;20034;-77
2022/03/07 04:21:10;;;;;;;9.93;5.85;;;-1.50;99.90;;;;;;4950444;29;20110;-77
2022/03/07 04:23:36;;;;;;;6.97;4.80;;;-1.50;99.90;;;;;;4970803;23;20494;-76
2022/03/07 04:26:02;;;;;;;8.18;4.90;;;-1.60;99.90;;;;;;4951779;28;20039;-76
2022/03/07 04:28:27;;;;;;;6.68;4.22;;;-1.60;99.90;;;;;;4935516;28;20049;-76
2022/03/07 04:30:53;;;;;;;7.38;4.45;;;-1.60;99.90;;;;;;4968934;28;20034;-76
2022/03/07 04:33:18;;;;;;;7.13;4.07;;;-1.60;99.90;;;;;;4969970;28;20058;-76
2022/03/07 04:35:44;;;;;;;5.70;4.00;;;0.20;99.90;;;;;;4951807;28;20034;-77
2022/03/07 04:38:10;;;;;;;5.10;3.80;;;-1.40;99.90;;;;;;4969154;28;20127;-76
2022/03/07 04:40:35;;;;;;;5.75;3.58;;;-1.40;99.90;;;;;;4969155;28;20070;-76
2022/03/07 04:43:01;;;;;;;8.48;4.10;;;-1.30;99.90;;;;;;4971905;28;20027;-76
2022/03/07 04:45:27;;;;;;;5.93;3.90;;;-1.40;99.90;;;;;;4972307;28;20368;-76
2022/03/07 04:47:52;;;;;;;7.70;3.90;;;-1.30;99.90;;;;;;4972161;28;20034;-76
2022/03/07 04:50:18;;;;;;;7.45;4.40;;;-1.10;99.90;;;;;;4971947;28;20092;-76
2022/03/07 04:52:44;;;;;;;7.10;3.38;;;-1.00;99.90;;;;;;4954574;28;20301;-77
2022/03/07 04:55:11;;;;;;;6.13;3.83;;;-1.20;99.90;;;;;;4954817;28;20041;-76
2022/03/07 04:57:38;;;;;;;6.32;3.38;;;-1.10;99.90;;;;;;4972009;28;20421;-77
2022/03/07 05:00:06;;;;;;;9.45;3.97;;;-1.20;99.90;;;;;;4971962;28;20015;-76
2022/03/07 05:02:32;;;;;;;8.45;4.60;;;-1.10;99.90;;;;;;4971838;28;20030;-76
2022/03/07 05:04:57;;;;;;;6.18;3.42;;;-1.20;99.90;;;;;;4972368;28;20023;-75
2022/03/07 05:07:24;;;;;;;8.43;4.53;;;-1.30;99.90;;;;;;4972050;28;20027;-76
2022/03/07 05:09:49;;;;;;;7.63;4.38;;;-1.30;99.90;;;;;;4938338;28;20110;-76
2022/03/07 05:12:15;;;;;;;7.57;4.22;;;-1.40;99.90;;;;;;4971598;28;20122;-76
2022/03/07 05:14:40;;;;;;;8.30;3.92;;;-1.40;99.90;;;;;;4971554;28;20091;-76
2022/03/07 05:17:06;;;;;;;5.50;4.10;;;-1.40;99.90;;;;;;4971568;28;20027;-76
2022/03/07 05:19:32;;;;;;;6.32;3.45;;;-1.60;99.90;;;;;;4954172;28;20026;-76
2022/03/07 05:21:58;;;;;;;6.30;4.07;;;-1.60;99.90;;;;;;4971567;28;20035;-76
2022/03/07 05:24:23;;;;;;;7.35;4.03;;;-1.50;99.90;;;;;;4954293;28;20522;-76
2022/03/07 05:26:49;;;;;;;5.85;3.60;;;-1.60;99.90;;;;;;4971235;28;20084;-76
2022/03/07 05:29:15;;;;;;;7.07;3.65;;;-1.70;99.90;;;;;;4954673;28;20038;-76
2022/03/07 05:31:40;;;;;;;6.70;3.70;;;-1.40;99.90;;;;;;4975349;28;20118;-76
2022/03/07 05:34:06;;;;;;;6.18;3.80;;;-1.60;99.90;;;;;;4959212;28;20089;-76
2022/03/07 05:36:32;;;;;;;5.43;3.38;;;-1.40;99.90;;;;;;4972039;28;20159;-76
2022/03/07 05:38:57;;;;;;;6.35;4.13;;;-1.40;99.90;;;;;;4970768;28;20034;-76
2022/03/07 05:41:23;;;;;;;7.75;4.03;;;-1.50;99.90;;;;;;4970923;28;20073;-76
2022/03/07 05:43:49;;;;;;;6.47;3.83;;;-1.50;99.90;;;;;;4953744;28;20043;-76
2022/03/07 05:46:14;;;;;;;9.07;4.60;;;-1.50;99.90;;;;;;4953928;28;20034;-76
2022/03/07 05:48:40;;;;;;;6.22;3.80;;;-1.60;99.90;;;;;;4970741;28;20061;-75
2022/03/07 05:51:05;;;;;;;5.93;3.60;;;-1.60;99.90;;;;;;4971283;28;20105;-76
2022/03/07 05:53:31;;;;;;;5.97;3.65;;;-1.70;99.90;;;;;;4937300;28;20455;-76
2022/03/07 05:55:57;;;;;;;7.00;3.92;;;-1.80;99.90;;;;;;4971429;28;20022;-76
2022/03/07 05:58:22;;;;;;;8.43;4.20;;;-0.40;99.90;;;;;;4970610;28;20106;-77
2022/03/07 06:00:48;;;;;;;11.98;4.18;;;-1.60;99.90;;;;;;4970712;28;20163;-75
2022/03/07 06:03:14;;;;;;;6.30;3.78;;;-1.40;99.90;;;;;;4936866;28;20487;-75
2022/03/07 06:05:40;;;;;;;7.50;4.35;;;-1.50;99.90;;;;;;4970966;28;20027;-77
2022/03/07 06:08:06;;;;;;;7.00;4.25;;;-1.50;99.90;;;;;;4970638;28;20499;-77
2022/03/07 06:10:32;;;;;;;6.53;4.43;;;-1.50;99.90;;;;;;4953027;28;20483;-74
2022/03/07 06:12:58;;;;;;;7.57;4.30;;;-1.40;99.90;;;;;;4952882;28;20046;-76
2022/03/07 06:15:24;;;;;;;8.65;4.25;;;-1.40;99.90;;;;;;4963527;28;20031;-77
2022/03/07 06:17:55;;;;;;;9.02;3.67;;;-1.40;99.90;;;;;;4965796;28;20474;-74
2022/03/07 06:20:22;;;;;;;6.63;3.72;;;-1.30;99.90;;;;;;4953015;28;20038;-76
2022/03/07 06:22:48;;;;;;;6.40;4.05;;;-1.30;99.90;;;;;;4970685;28;20055;-77
2022/03/07 06:25:14;;;;;;;6.40;3.88;;;-1.30;99.90;;;;;;4970534;28;20056;-77
2022/03/07 06:27:40;;;;;;;7.65;4.00;;;-1.40;99.90;;;;;;4953701;28;20106;-76
2022/03/07 06:30:06;;;;;;;7.30;4.53;;;-1.30;99.90;;;;;;4921078;28;20118;-77
2022/03/07 06:32:32;;;;;;;7.30;4.55;;;-1.20;99.90;;;;;;4953214;28;20041;-75
2022/03/07 06:34:58;;;;;;;6.88;4.35;;;-1.20;99.90;;;;;;4952357;28;20023;-75
2022/03/07 06:37:24;;;;;;;7.18;4.45;;;-0.90;99.90;;;;;;4926260;28;20055;-75
2022/03/07 06:39:49;;;;;;;7.22;4.45;;;-1.10;99.90;;;;;;4946993;28;20121;-75
2022/03/07 06:42:15;;;;;;;6.65;4.47;;;-1.00;99.90;;;;;;4964432;28;20497;-76
2022/03/07 06:44:40;;;;;;;7.75;4.25;;;-1.20;99.90;;;;;;4966587;28;20027;-75
2022/03/07 06:47:10;;;;;;;8.32;4.43;;;-0.90;99.90;;;;;;4963032;28;20019;-76
2022/03/07 06:49:36;;;;;;;8.93;4.45;;;-0.80;99.90;;;;;;4960133;28;20503;-76
2022/03/07 06:52:02;;;;;;;9.60;5.22;;;-0.90;99.90;;;;;;4970132;28;20054;-75
2022/03/07 06:54:28;;;;;;;6.53;4.22;;;-0.70;99.90;;;;;;4971231;28;20110;-80
2022/03/07 06:56:54;;;;;;;8.65;5.40;;;-0.80;99.90;;;;;;4970603;28;20427;-77
2022/03/07 06:59:20;;;;;;;8.38;4.70;;;-0.50;99.90;;;;;;4952534;28;20027;-77
2022/03/07 07:01:45;;;;;;;7.18;4.60;;;-0.70;99.90;;;;;;4970066;28;20030;-78
2022/03/07 07:04:11;;;;;;;8.00;4.72;;;0.80;99.90;;;;;;4969607;28;20356;-78
2022/03/07 07:06:37;;;;;;;8.60;4.85;;;-0.70;99.90;;;;;;4971786;28;20034;-78
2022/03/07 07:09:03;;;;;;;7.35;4.50;;;-0.50;99.90;;;;;;4954099;28;20038;-78
2022/03/07 07:11:29;;;;;;;8.57;4.45;;;-0.40;99.90;;;;;;4969504;28;20088;-77
2022/03/07 07:13:55;;;;;;;7.85;4.55;;;-0.30;99.90;;;;;;4965902;28;20027;-77
2022/03/07 07:16:20;;;;;;;8.25;4.53;;;-0.20;99.90;;;;;;4972767;28;20030;-78
2022/03/07 07:18:46;;;;;;;6.82;4.88;;;-0.10;99.90;;;;;;4954708;28;20038;-78
2022/03/07 07:21:12;;;;;;;7.32;4.57;;;-0.20;99.90;;;;;;4973313;28;20099;-79
2022/03/07 07:23:38;;;;;;;7.35;4.75;;;0.00;99.90;;;;;;4954049;28;20031;-77
2022/03/07 07:26:04;;;;;;;8.45;4.53;;;0.10;99.90;;;;;;4971531;28;20100;-78
2022/03/07 07:28:30;;;;;;;7.22;4.25;;;1.60;99.90;;;;;;4970817;28;20039;-78
2022/03/07 07:30:56;;;;;;;7.38;5.20;;;0.10;99.90;;;;;;4957864;28;20510;-77
2022/03/07 07:33:21;;;;;;;11.20;5.05;;;0.40;99.90;;;;;;4962204;28;20043;-77
2022/03/07 07:35:47;;;;;;;8.32;5.65;;;0.80;99.90;;;;;;4976105;28;20056;-78
2022/03/07 07:38:13;;;;;;;6.75;4.45;;;0.50;99.90;;;;;;5028702;28;20549;-77
2022/03/07 07:40:40;;;;;;;6.63;4.45;;;1.40;99.90;;;;;;4959434;28;20064;-76
2022/03/07 07:43:05;;;;;;;6.80;4.47;;;0.50;99.90;;;;;;4976381;28;20338;-76
2022/03/07 07:45:32;;;;;;;6.97;4.70;;;0.80;99.90;;;;;;5028912;28;20075;-78
2022/03/07 07:48:01;;;;;;;9.20;5.07;;;1.90;99.90;;;;;;5047407;28;20033;-77
2022/03/07 07:50:27;;;;;;;7.53;4.50;;;1.00;99.90;;;;;;5044884;28;20512;-77
2022/03/07 07:52:55;;;;;;;6.60;4.45;;;1.00;99.90;;;;;;5029023;28;20035;-78
2022/03/07 07:55:21;;;;;;;7.97;4.72;;;1.10;99.90;;;;;;4949994;28;20031;-77
2022/03/07 07:57:47;;;;;;;8.68;5.15;;;1.20;99.90;;;;;;4964835;28;20038;-77
2022/03/07 08:00:15;;;;;;;9.23;5.50;;;1.20;99.90;;;;;;4964327;28;20026;-79
2022/03/07 08:02:42;;;;;;;7.88;4.88;;;1.10;99.90;;;;;;4949253;28;20023;-77
2022/03/07 08:05:08;;;;;;;9.18;6.38;;;1.40;99.60;;;;;;4950228;29;20024;-78
2022/03/07 08:07:34;;;;;;;7.30;4.70;;;1.50;99.10;;;;;;4950640;29;20118;-78
2022/03/07 08:10:01;;;;;;;7.85;5.45;;;1.50;99.10;;;;;;4940416;28;20105;-77
2022/03/07 08:12:27;;;;;;;8.02;5.43;;;3.50;99.30;;;;;;4969268;28;20031;-78
2022/03/07 08:14:53;;;;;;;8.10;5.28;;;1.50;98.70;;;;;;4933507;29;20142;-77
2022/03/07 08:17:19;;;;;;;10.15;6.35;;;1.70;98.60;;;;;;4963536;28;20118;-77
2022/03/07 08:19:45;;;;;;;8.82;5.45;;;3.90;98.80;;;;;;4971711;28;20035;-78
2022/03/07 08:22:10;;;;;;;8.77;5.85;;;1.90;97.80;;;;;;4972064;28;20066;-78
2022/03/07 08:24:36;;;;;;;13.50;7.78;;;2.00;98.00;;;;;;4968681;28;20042;-78
2022/03/07 08:27:01;;;;;;;11.02;6.63;;;2.10;98.10;;;;;;4971418;28;20035;-77
2022/03/07 08:29:27;;;;;;;10.65;6.38;;;2.10;97.60;;;;;;4958330;28;20097;-77
2022/03/07 08:31:53;;;;;;;10.52;6.10;;;2.30;97.30;;;;;;4969754;28;20038;-77
2022/03/07 08:34:18;;;;;;;9.90;5.85;;;2.00;97.80;;;;;;4961834;28;20486;-77
2022/03/07 08:36:44;;;;;;;10.52;6.20;;;2.20;97.60;;;;;;4972782;28;20133;-77
2022/03/07 08:39:09;;;;;;;8.20;5.50;;;3.30;97.60;;;;;;4949641;29;20035;-77
2022/03/07 08:41:35;;;;;;;10.02;6.10;;;2.40;96.80;;;;;;4938940;28;20042;-77
2022/03/07 08:44:01;;;;;;;10.50;6.15;;;2.40;97.00;;;;;;4960822;28;20508;-77
2022/03/07 08:46:27;;;;;;;11.82;6.45;;;2.70;96.50;;;;;;4953563;29;20024;-76
2022/03/07 08:48:53;;;;;;;8.23;5.88;;;2.80;96.10;;;;;;4932145;28;20034;-76
2022/03/07 08:51:19;;;;;;;8.98;6.07;;;2.80;95.80;;;;;;4969219;28;20038;-77
2022/03/07 08:53:45;;;;;;;13.43;6.95;;;3.00;95.40;;;;;;4966935;28;20121;-76
2022/03/07 08:56:12;;;;;;;8.82;5.60;;;4.20;95.70;;;;;;4968070;28;20087;-76
2022/03/07 08:58:38;;;;;;;9.27;5.55;;;3.20;94.60;;;;;;4969664;28;20027;-76
2022/03/07 09:01:04;;;;;;;11.23;6.20;;;3.30;94.10;;;;;;4949932;28;20069;-76
2022/03/07 09:03:29;;;;;;;10.10;6.47;;;3.60;94.00;;;;;;4963383;28;20031;-76
2022/03/07 09:05:55;;;;;;;12.43;5.90;;;4.00;93.20;;;;;;4950063;28;20026;-76
2022/03/07 09:08:20;;;;;;;7.72;5.25;;;4.40;92.30;;;;;;4968233;28;20153;-76
2022/03/07 09:10:46;;;;;;;9.48;5.95;;;4.40;91.80;;;;;;4950102;28;20045;-77
2022/03/07 09:13:12;;;;;;;7.45;5.70;;;4.90;91.10;;;;;;4933562;28;20038;-76
2022/03/07 09:15:37;;;;;;;9.60;6.07;;;4.90;88.70;;;;;;4969183;28;20110;-75
2022/03/07 09:18:03;;;;;;;9.15;6.15;;;5.70;82.40;;;;;;4967962;28;20422;-76
2022/03/07 09:20:29;;;;;;;10.13;6.55;;;6.20;80.30;;;;;;4967019;28;20137;-74
2022/03/07 09:26:48;;;;;;;7.35;2.00;;;12.60;99.90;;;;;;5076160;27;21183;-68
2022/03/07 09:29:14;;;;;;;2.75;1.60;;;16.60;99.90;;;;;;5068893;28;20043;-68
2022/03/07 09:31:40;;;;;;;4.68;1.77;;;17.00;99.90;;;;;;5071137;28;20546;-73
2022/03/07 09:34:06;;;;;;;3.17;1.67;;;17.90;99.90;;;;;;5049436;28;20040;-70
